Ana Sayfa
METAR-TAF:

METAR-TAF

Havaalanları :

Enid, Oklahoma, Amerika Birleşik Devletleri

Enlem: 36-22-45N, Boylam: 097-47-28W, yükseklik: 356 m

Güncel hava durumu gözlemi

Rapor saat 19:45 UTC de 6 dakika önce yapıldı.
Rüzgar kuzeydan 17 kt ve 23 kt'a kadar ani rüzgarlar
Sıcaklık 7°C
Nem 39%
Basınç 1029 hPa
Görüş mesafesi: 16.1 km
25000 ft yükseklikte parçalı bulutlu

METAR: KWDG 181945Z 36017G23KT 10SM SCT250 07/M06 A3038

Saat: 13:51 (19:51 UTC)


TAF: eksik

4.000'den fazla havaalanı için hava durumu gözlemleri ve tahminleri (METAR ve TAF raporları).

Kullanılabilir istasyonlar harita üzerinde sarı ve kırmızı noktalarla gösterilir.

İstasyonun adını görmek için fareyi noktanın üzerinde gezdirin.

Sonrasında hava gözlem ve tahminlerini görmek için tıklayın.

Haritayı değiştirmek için: yaklaştırmak için siyah artı işaretli yeşil düğmeye ve uzaklaştırmak için de eksi işaretli düğmeye hızla tıklayın; bitişik haritalar için yeşil okları kullanın.


METAR-TAF: